createdAt,value
2023-02-02T00:01:36.203Z,27.02
2023-02-02T00:04:04.530Z,29.55
2023-02-02T00:06:34.320Z,28.98
2023-02-02T00:09:03.820Z,31.80
2023-02-02T00:11:31.946Z,28.33
2023-02-02T00:14:00.880Z,29.38
2023-02-02T00:16:37.918Z,34.95
2023-02-02T00:19:08.291Z,24.20
2023-02-02T00:21:38.803Z,29.70
2023-02-02T00:24:08.172Z,30.17
2023-02-02T00:26:37.077Z,38.72
2023-02-02T00:29:06.152Z,35.72
2023-02-02T00:31:34.669Z,35.10
2023-02-02T00:34:02.760Z,31.88
2023-02-02T00:36:30.759Z,36.28
2023-02-02T00:39:00.203Z,35.83
2023-02-02T00:41:28.250Z,37.33
2023-02-02T00:44:13.568Z,42.42
2023-02-02T00:46:42.653Z,35.78
2023-02-02T00:49:11.098Z,37.85
2023-02-02T00:51:39.320Z,41.38
2023-02-02T00:54:08.841Z,40.88
2023-02-02T00:56:36.858Z,49.65
2023-02-02T00:59:04.921Z,42.47
2023-02-02T01:01:33.052Z,51.70
2023-02-02T01:04:01.569Z,44.53
2023-02-02T01:06:29.610Z,41.88
2023-02-02T01:08:57.605Z,35.50
2023-02-02T01:11:27.676Z,35.42
2023-02-02T01:13:55.730Z,29.17
2023-02-02T01:16:24.887Z,36.25
2023-02-02T01:18:53.295Z,32.13
2023-02-02T01:21:21.859Z,33.75
2023-02-02T01:23:50.179Z,33.70
2023-02-02T01:26:18.594Z,48.22
2023-02-02T01:28:48.360Z,26.90
2023-02-02T01:31:19.966Z,17.55
2023-02-02T01:33:49.490Z,13.35
2023-02-02T01:36:25.702Z,17.27
2023-02-02T01:38:53.757Z,18.48
2023-02-02T01:41:26.503Z,17.33
2023-02-02T01:43:58.571Z,34.00
2023-02-02T01:46:31.809Z,43.17
2023-02-02T01:49:04.939Z,36.13
2023-02-02T01:51:41.969Z,32.92
2023-02-02T01:54:14.832Z,34.33
2023-02-02T01:56:48.020Z,34.67
2023-02-02T01:59:18.999Z,38.33
2023-02-02T02:01:49.113Z,37.40
2023-02-02T02:04:18.851Z,31.80
2023-02-02T02:06:48.160Z,41.50
2023-02-02T02:09:16.690Z,47.85
2023-02-02T02:11:44.790Z,34.70
2023-02-02T02:14:32.543Z,45.88
2023-02-02T02:17:23.323Z,51.30
2023-02-02T02:20:43.228Z,44.95
2023-02-02T02:24:28.236Z,44.08
2023-02-02T02:27:15.408Z,47.67
2023-02-02T02:30:07.234Z,39.10
2023-02-02T02:32:42.933Z,33.75
2023-02-02T02:35:19.422Z,38.15
2023-02-02T02:37:51.352Z,38.65
2023-02-02T02:40:26.865Z,45.25
2023-02-02T02:43:00.111Z,42.65
2023-02-02T02:45:29.734Z,40.13
2023-02-02T02:47:59.621Z,37.38
2023-02-02T02:50:28.361Z,33.00
2023-02-02T02:53:05.308Z,36.13
2023-02-02T02:55:43.832Z,30.10
2023-02-02T02:58:16.498Z,34.33
2023-02-02T03:00:51.802Z,44.20
2023-02-02T03:03:34.824Z,34.40
2023-02-02T03:06:09.823Z,31.42
2023-02-02T03:08:41.389Z,54.67
2023-02-02T03:11:12.199Z,28.80
2023-02-02T03:13:41.553Z,28.98
2023-02-02T03:16:10.418Z,29.83
2023-02-02T03:18:40.438Z,22.33
2023-02-02T03:21:12.183Z,26.45
2023-02-02T03:23:40.514Z,40.72
2023-02-02T03:26:08.606Z,42.88
2023-02-02T03:28:37.207Z,35.33
2023-02-02T03:31:06.048Z,30.40
2023-02-02T03:33:36.485Z,41.30
2023-02-02T03:36:06.565Z,30.65
2023-02-02T03:38:35.083Z,34.70
2023-02-02T03:41:03.124Z,28.50
2023-02-02T03:43:31.168Z,26.90
2023-02-02T03:46:00.096Z,33.30
2023-02-02T03:48:28.806Z,32.75
2023-02-02T03:50:57.479Z,47.72
2023-02-02T03:53:26.890Z,37.45
2023-02-02T03:55:54.970Z,42.00
2023-02-02T03:58:23.095Z,37.00
2023-02-02T04:00:51.169Z,40.58
2023-02-02T04:03:19.204Z,37.75
2023-02-02T04:05:51.101Z,42.53
2023-02-02T04:08:19.415Z,40.45
2023-02-02T04:10:48.878Z,42.47
2023-02-02T04:13:16.916Z,36.15
2023-02-02T04:15:45.090Z,38.20
2023-02-02T04:18:13.509Z,34.65
2023-02-02T04:20:41.611Z,39.45
2023-02-02T04:23:09.583Z,48.58
2023-02-02T04:25:37.600Z,39.15
2023-02-02T04:28:07.142Z,41.03
2023-02-02T04:30:35.304Z,63.80
2023-02-02T04:33:03.400Z,32.90
2023-02-02T04:35:31.515Z,51.90
2023-02-02T04:37:59.590Z,52.28
2023-02-02T04:40:27.830Z,45.92
2023-02-02T04:42:55.827Z,39.83
2023-02-02T04:45:25.697Z,43.55
2023-02-02T04:47:54.015Z,35.83
2023-02-02T04:50:22.152Z,42.13
2023-02-02T04:52:50.193Z,38.50
2023-02-02T04:55:18.384Z,44.70
2023-02-02T04:57:46.629Z,28.02
2023-02-02T05:00:15.669Z,54.13
2023-02-02T05:02:45.369Z,42.28
2023-02-02T05:05:14.996Z,44.97
2023-02-02T05:07:43.110Z,40.55
2023-02-02T05:10:12.502Z,30.38
2023-02-02T05:12:40.574Z,33.80
2023-02-02T05:15:09.753Z,34.53
2023-02-02T05:17:37.917Z,39.97
2023-02-02T05:20:08.173Z,38.80
2023-02-02T05:22:36.301Z,44.40
2023-02-02T05:25:04.572Z,34.17
2023-02-02T05:27:32.720Z,38.63
2023-02-02T05:30:00.896Z,36.00
2023-02-02T05:32:29.819Z,34.72
2023-02-02T05:34:57.876Z,48.90
2023-02-02T05:37:27.461Z,50.45
2023-02-02T05:39:55.573Z,39.65
2023-02-02T05:42:23.601Z,38.20
2023-02-02T05:44:51.668Z,45.05
2023-02-02T05:47:19.893Z,45.92
2023-02-02T05:49:48.245Z,36.20
2023-02-02T05:52:22.688Z,25.10
2023-02-02T05:54:52.205Z,33.67
2023-02-02T05:57:20.336Z,33.67
2023-02-02T05:59:48.326Z,32.25
2023-02-02T06:02:16.356Z,35.60
2023-02-02T06:04:44.443Z,40.33
2023-02-02T06:07:13.229Z,42.85
2023-02-02T06:09:41.280Z,45.97
2023-02-02T06:12:10.732Z,46.38
2023-02-02T06:14:38.848Z,36.50
2023-02-02T06:17:07.689Z,34.05
2023-02-02T06:19:35.682Z,27.63
2023-02-02T06:22:03.730Z,35.67
2023-02-02T06:24:31.862Z,33.75
2023-02-02T06:26:59.958Z,38.47
2023-02-02T06:29:29.469Z,39.22
2023-02-02T06:31:57.566Z,34.85
2023-02-02T06:34:25.619Z,38.35
2023-02-02T06:36:53.594Z,33.28
2023-02-02T06:39:21.706Z,44.03
2023-02-02T06:41:52.039Z,44.78
2023-02-02T06:44:21.105Z,40.20
2023-02-02T06:46:50.546Z,40.83
2023-02-02T06:49:18.627Z,39.58
2023-02-02T06:51:48.192Z,36.17
2023-02-02T06:54:16.472Z,40.30
2023-02-02T06:56:44.526Z,26.90
2023-02-02T06:59:12.622Z,31.77
2023-02-02T07:01:40.740Z,35.63
2023-02-02T07:04:10.158Z,29.15
2023-02-02T07:06:39.611Z,46.35
2023-02-02T07:09:07.692Z,49.08
2023-02-02T07:11:41.969Z,33.28
2023-02-02T07:14:12.255Z,45.75
2023-02-02T07:16:40.330Z,39.78
2023-02-02T07:19:11.309Z,37.15
2023-02-02T07:21:39.586Z,38.15
2023-02-02T07:24:09.022Z,43.30
2023-02-02T07:26:37.529Z,43.22
2023-02-02T07:29:06.560Z,38.30
2023-02-02T07:31:36.575Z,36.70
2023-02-02T07:34:05.488Z,39.88
2023-02-02T07:36:34.965Z,35.85
2023-02-02T07:39:04.670Z,40.80
2023-02-02T07:41:33.284Z,36.65
2023-02-02T07:44:01.779Z,46.85
2023-02-02T07:46:30.059Z,36.97
2023-02-02T07:48:58.793Z,39.78
2023-02-02T07:51:27.546Z,42.47
2023-02-02T07:53:59.391Z,51.13
2023-02-02T07:56:28.816Z,47.17
2023-02-02T07:58:57.860Z,43.35
2023-02-02T08:01:27.016Z,44.22
2023-02-02T08:03:56.235Z,45.38
2023-02-02T08:06:26.456Z,31.35
2023-02-02T08:08:55.929Z,45.38
2023-02-02T08:11:25.922Z,39.15
2023-02-02T08:13:55.677Z,33.92
2023-02-02T08:16:24.633Z,43.10
2023-02-02T08:18:53.232Z,44.88
2023-02-02T08:21:21.346Z,38.17
2023-02-02T08:23:50.122Z,40.92
2023-02-02T08:26:22.134Z,39.20
2023-02-02T08:28:54.134Z,44.22
2023-02-02T08:31:24.563Z,39.15
2023-02-02T08:33:54.003Z,38.15
2023-02-02T08:36:24.356Z,42.80
2023-02-02T08:38:52.899Z,47.05
2023-02-02T08:41:24.503Z,30.95
2023-02-02T08:43:53.002Z,38.58
2023-02-02T08:46:22.437Z,49.42
2023-02-02T08:48:50.758Z,38.45
2023-02-02T08:51:20.386Z,37.83
2023-02-02T08:53:49.105Z,31.00
2023-02-02T08:56:19.710Z,41.15
2023-02-02T08:58:51.022Z,37.92
2023-02-02T09:01:21.256Z,30.27
2023-02-02T09:03:49.638Z,35.90
2023-02-02T09:06:20.696Z,50.33
2023-02-02T09:08:49.262Z,42.10
2023-02-02T09:11:19.004Z,29.23
2023-02-02T09:13:50.125Z,25.92
2023-02-02T09:16:20.101Z,35.42
2023-02-02T09:18:48.181Z,37.53
2023-02-02T09:21:17.898Z,37.08
2023-02-02T09:23:47.720Z,35.00
2023-02-02T09:26:18.012Z,37.00
2023-02-02T09:28:49.949Z,28.38
2023-02-02T09:31:18.754Z,31.10
2023-02-02T09:33:47.017Z,29.02
2023-02-02T09:36:16.422Z,36.22
2023-02-02T09:38:44.972Z,27.30
2023-02-02T09:41:43.592Z,30.73
2023-02-02T09:44:20.618Z,40.25
2023-02-02T09:46:58.198Z,24.67
2023-02-02T09:49:32.673Z,23.70
2023-02-02T09:52:05.119Z,22.77
2023-02-02T09:54:39.579Z,21.80
2023-02-02T09:57:14.899Z,21.77
2023-02-02T09:59:45.438Z,39.88
2023-02-02T10:02:19.636Z,29.95
2023-02-02T10:04:52.293Z,21.63
2023-02-02T10:07:22.531Z,26.60
2023-02-02T10:09:57.251Z,35.80
2023-02-02T10:12:34.171Z,46.13
2023-02-02T10:15:13.469Z,44.47
2023-02-02T10:17:47.832Z,43.10
2023-02-02T10:20:38.197Z,35.30
2023-02-02T10:23:13.913Z,45.30
2023-02-02T10:25:50.486Z,52.45
2023-02-02T10:28:44.227Z,41.40
2023-02-02T10:31:23.515Z,45.25
2023-02-02T10:34:03.443Z,48.67
2023-02-02T10:36:42.840Z,54.45
2023-02-02T10:39:20.938Z,41.78
2023-02-02T10:42:00.316Z,43.17
2023-02-02T10:44:38.368Z,39.72
2023-02-02T10:47:14.025Z,44.50
2023-02-02T10:49:42.560Z,47.72
2023-02-02T10:52:17.726Z,30.50
2023-02-02T10:54:57.761Z,42.45
2023-02-02T10:57:35.502Z,43.60
2023-02-02T11:00:11.504Z,38.65
2023-02-02T11:02:40.941Z,44.80
2023-02-02T11:05:35.443Z,46.78
2023-02-02T11:08:03.682Z,39.80
2023-02-02T11:10:33.875Z,35.15
2023-02-02T11:13:03.707Z,34.72
2023-02-02T11:15:32.459Z,43.40
2023-02-02T11:18:15.893Z,49.42
2023-02-02T11:20:46.582Z,39.95
2023-02-02T11:23:20.207Z,40.97
2023-02-02T11:25:58.953Z,39.20
2023-02-02T11:28:30.292Z,37.92
2023-02-02T11:30:59.216Z,34.95
2023-02-02T11:33:30.701Z,46.78
2023-02-02T11:36:00.731Z,43.08
2023-02-02T11:38:29.563Z,33.15
2023-02-02T11:41:02.363Z,30.50
2023-02-02T11:43:32.642Z,31.85
2023-02-02T11:46:04.325Z,25.38
2023-02-02T11:48:37.110Z,40.25
2023-02-02T11:51:07.021Z,34.58
2023-02-02T11:53:37.833Z,32.08
2023-02-02T11:56:10.669Z,29.15
2023-02-02T11:58:46.156Z,26.38
2023-02-02T12:01:33.130Z,40.30
2023-02-02T12:04:04.528Z,27.80
2023-02-02T12:06:36.777Z,31.92
2023-02-02T12:09:15.432Z,35.97
2023-02-02T12:11:55.284Z,31.80
2023-02-02T12:14:35.547Z,32.22
2023-02-02T12:17:16.243Z,27.60
2023-02-02T12:20:03.917Z,35.25
2023-02-02T12:22:50.552Z,29.17
2023-02-02T12:25:38.877Z,38.72
2023-02-02T12:28:19.508Z,31.98
2023-02-02T12:30:57.653Z,24.95
2023-02-02T12:33:34.602Z,36.50
2023-02-02T12:36:24.367Z,45.95
2023-02-02T12:39:07.914Z,40.28
2023-02-02T12:41:48.880Z,36.92
2023-02-02T12:44:24.689Z,36.42
2023-02-02T12:47:09.649Z,42.88
2023-02-02T12:50:01.173Z,39.53
2023-02-02T12:52:49.815Z,33.67
2023-02-02T12:55:26.443Z,37.58
2023-02-02T12:58:03.268Z,28.42
2023-02-02T13:00:54.526Z,28.23
2023-02-02T13:03:36.276Z,40.05
2023-02-02T13:06:24.531Z,31.83
2023-02-02T13:09:01.902Z,23.13
2023-02-02T13:11:39.940Z,28.63
2023-02-02T13:14:13.926Z,29.25
2023-02-02T13:16:48.528Z,24.13
2023-02-02T13:19:26.659Z,27.53
2023-02-02T13:21:59.249Z,31.83
2023-02-02T13:24:38.702Z,27.35
2023-02-02T13:27:11.953Z,25.42
2023-02-02T13:29:47.986Z,21.73
2023-02-02T13:32:24.429Z,26.95
2023-02-02T13:34:56.619Z,29.77
2023-02-02T13:37:30.392Z,25.48
2023-02-02T13:40:02.813Z,28.45
2023-02-02T13:42:42.030Z,31.17
2023-02-02T13:45:34.238Z,26.88
2023-02-02T13:48:21.228Z,21.17
2023-02-02T13:51:07.593Z,23.83
2023-02-02T13:53:50.823Z,28.88
2023-02-02T13:56:39.767Z,29.15
2023-02-02T13:59:26.018Z,32.58
2023-02-02T14:01:55.005Z,32.28
2023-02-02T14:04:26.001Z,37.92
2023-02-02T14:06:58.224Z,30.80
2023-02-02T14:09:29.241Z,47.85
2023-02-02T14:12:01.944Z,30.20
2023-02-02T14:14:35.255Z,30.88
2023-02-02T14:17:05.850Z,39.22
2023-02-02T14:19:55.557Z,26.05
2023-02-02T14:22:44.601Z,25.35
2023-02-02T14:25:47.505Z,29.77
2023-02-02T14:28:50.814Z,35.20
2023-02-02T14:31:29.704Z,24.48
2023-02-02T14:34:27.852Z,28.38
2023-02-02T14:37:11.165Z,26.60
2023-02-02T14:39:50.541Z,26.70
2023-02-02T14:42:48.475Z,40.35
2023-02-02T14:45:27.165Z,33.70
2023-02-02T14:47:58.506Z,28.50
2023-02-02T14:50:37.052Z,30.13
2023-02-02T14:53:08.382Z,38.35
2023-02-02T14:56:00.553Z,39.75
2023-02-02T14:58:35.136Z,33.33
2023-02-02T15:01:11.068Z,31.77
2023-02-02T15:03:49.463Z,30.63
2023-02-02T15:06:30.379Z,36.92
2023-02-02T15:09:36.588Z,31.83
2023-02-02T15:12:35.144Z,25.75
2023-02-02T15:15:18.389Z,33.45
2023-02-02T15:17:55.994Z,32.45
2023-02-02T15:20:30.908Z,28.38
2023-02-02T15:23:03.501Z,25.92
2023-02-02T15:25:36.775Z,29.65
2023-02-02T15:28:13.287Z,29.10
2023-02-02T15:30:45.990Z,25.63
2023-02-02T15:33:25.484Z,31.75
2023-02-02T15:35:55.100Z,31.33
2023-02-02T15:38:25.205Z,29.65
2023-02-02T15:40:56.770Z,40.30
2023-02-02T15:43:28.082Z,38.85
2023-02-02T15:46:02.483Z,31.77
2023-02-02T15:48:34.653Z,40.35
2023-02-02T15:51:06.432Z,34.30
2023-02-02T15:53:46.567Z,26.73
2023-02-02T15:56:27.463Z,34.75
2023-02-02T15:58:57.520Z,28.25
2023-02-02T16:01:28.090Z,24.30
2023-02-02T16:04:08.240Z,33.08
2023-02-02T16:06:36.892Z,30.15
2023-02-02T16:09:05.558Z,33.97
2023-02-02T16:11:34.265Z,31.55
2023-02-02T16:14:04.136Z,29.95
2023-02-02T16:16:34.698Z,27.05
2023-02-02T16:19:07.465Z,25.90
2023-02-02T16:21:38.647Z,25.23
2023-02-02T16:24:13.259Z,25.92
2023-02-02T16:26:42.351Z,25.60
2023-02-02T16:29:17.143Z,23.67
2023-02-02T16:31:46.609Z,25.25
2023-02-02T16:34:40.141Z,22.75
2023-02-02T16:37:13.817Z,23.80
2023-02-02T16:39:42.177Z,29.13
2023-02-02T16:42:11.625Z,22.88
2023-02-02T16:44:42.948Z,23.60
2023-02-02T16:47:37.706Z,29.95
2023-02-02T16:50:28.191Z,27.75
2023-02-02T16:53:00.404Z,29.48
2023-02-02T16:55:43.652Z,29.83
2023-02-02T16:58:20.881Z,32.40
2023-02-02T17:01:12.311Z,35.88
2023-02-02T17:03:48.497Z,33.47
2023-02-02T17:06:18.227Z,42.83
2023-02-02T17:08:46.298Z,36.25
2023-02-02T17:11:24.758Z,34.97
2023-02-02T17:13:53.625Z,32.72
2023-02-02T17:16:23.166Z,28.25
2023-02-02T17:18:52.535Z,28.58
2023-02-02T17:21:25.426Z,28.30
2023-02-02T17:23:54.617Z,25.40
2023-02-02T17:26:22.768Z,21.85
2023-02-02T17:28:55.880Z,27.13
2023-02-02T17:31:24.072Z,27.63
2023-02-02T17:33:52.147Z,28.17
2023-02-02T17:36:21.599Z,21.73
2023-02-02T17:38:49.684Z,26.25
2023-02-02T17:41:17.763Z,22.05
2023-02-02T17:43:45.958Z,20.85
2023-02-02T17:46:14.078Z,22.77
2023-02-02T17:48:42.675Z,20.75
2023-02-02T17:51:15.958Z,20.58
2023-02-02T17:53:46.131Z,23.63
2023-02-02T17:56:14.185Z,45.90
2023-02-02T17:58:42.306Z,21.83
2023-02-02T18:01:11.904Z,22.70
2023-02-02T18:03:41.566Z,21.88
2023-02-02T18:06:11.571Z,26.83
2023-02-02T18:08:40.773Z,23.20
2023-02-02T18:11:13.578Z,24.13
2023-02-02T18:13:43.513Z,27.77
2023-02-02T18:16:12.659Z,24.55
2023-02-02T18:18:40.762Z,23.00
2023-02-02T18:21:10.686Z,24.80
2023-02-02T18:23:39.279Z,20.92
2023-02-02T18:26:13.367Z,21.88
2023-02-02T18:28:41.539Z,29.63
2023-02-02T18:31:11.320Z,22.08
2023-02-02T18:33:41.523Z,20.77
2023-02-02T18:36:12.421Z,23.80
2023-02-02T18:38:41.613Z,19.70
2023-02-02T18:41:09.789Z,19.50
2023-02-02T18:43:39.167Z,22.40
2023-02-02T18:46:10.307Z,32.15
2023-02-02T18:48:38.606Z,28.92
2023-02-02T18:51:07.451Z,22.50
2023-02-02T18:53:36.184Z,22.75
2023-02-02T18:56:06.385Z,27.27
2023-02-02T18:58:34.924Z,32.08
2023-02-02T19:01:09.496Z,31.13
2023-02-02T19:03:38.034Z,25.60
2023-02-02T19:06:25.045Z,26.45
2023-02-02T19:08:53.190Z,23.33
2023-02-02T19:11:22.750Z,31.73
2023-02-02T19:13:50.946Z,37.05
2023-02-02T19:16:25.714Z,37.47
2023-02-02T19:18:57.346Z,29.48
2023-02-02T19:21:26.521Z,33.55
2023-02-02T19:23:54.586Z,29.33
2023-02-02T19:26:24.704Z,34.05
2023-02-02T19:28:53.251Z,43.30
2023-02-02T19:31:22.762Z,41.35
2023-02-02T19:33:51.950Z,37.17
2023-02-02T19:36:22.498Z,41.92
2023-02-02T19:38:53.414Z,41.70
2023-02-02T19:41:24.593Z,45.60
2023-02-02T19:43:58.359Z,40.75
2023-02-02T19:46:28.929Z,34.53
2023-02-02T19:49:08.401Z,49.92
2023-02-02T19:51:42.904Z,47.90
2023-02-02T19:54:27.920Z,53.45
2023-02-02T19:56:58.461Z,40.97
2023-02-02T19:59:30.871Z,43.40
2023-02-02T20:02:20.027Z,47.30
2023-02-02T20:04:49.173Z,51.83
2023-02-02T20:07:17.212Z,46.38
2023-02-02T20:09:45.399Z,42.95
2023-02-02T20:12:22.282Z,45.45
2023-02-02T20:14:50.318Z,47.20
2023-02-02T20:17:28.958Z,44.22
2023-02-02T20:19:57.016Z,49.85
2023-02-02T20:22:29.342Z,41.15
2023-02-02T20:24:58.674Z,46.50
2023-02-02T20:27:29.054Z,38.08
2023-02-02T20:30:02.096Z,41.42
2023-02-02T20:32:40.769Z,30.88
2023-02-02T20:35:23.922Z,34.88
2023-02-02T20:37:52.222Z,32.45
2023-02-02T20:40:25.979Z,35.92
2023-02-02T20:42:54.540Z,35.20
2023-02-02T20:45:23.426Z,30.35
2023-02-02T20:47:53.161Z,38.97
2023-02-02T20:50:23.071Z,31.25
2023-02-02T20:52:53.538Z,32.90
2023-02-02T20:55:21.727Z,27.77
2023-02-02T20:57:49.786Z,29.75
2023-02-02T21:00:21.373Z,30.80
2023-02-02T21:02:49.537Z,27.60
2023-02-02T21:05:19.418Z,29.67
2023-02-02T21:07:47.885Z,28.40
2023-02-02T21:10:16.219Z,30.17
2023-02-02T21:12:44.243Z,32.97
2023-02-02T21:15:12.494Z,39.72
2023-02-02T21:17:41.354Z,30.08
2023-02-02T21:20:11.746Z,28.90
2023-02-02T21:22:41.320Z,26.42
2023-02-02T21:25:10.051Z,24.65
2023-02-02T21:27:41.174Z,25.27
2023-02-02T21:30:10.931Z,36.40
2023-02-02T21:32:39.040Z,29.60
2023-02-02T21:35:07.543Z,23.55
2023-02-02T21:37:37.688Z,23.42
2023-02-02T21:40:14.648Z,26.67
2023-02-02T21:42:48.268Z,30.75
2023-02-02T21:45:35.170Z,28.98
2023-02-02T21:48:07.256Z,27.88
2023-02-02T21:50:36.932Z,26.83
2023-02-02T21:53:19.857Z,29.13
2023-02-02T21:55:53.208Z,23.55
2023-02-02T21:58:24.977Z,25.75
2023-02-02T22:00:54.081Z,28.45
2023-02-02T22:03:35.462Z,24.58
2023-02-02T22:06:19.709Z,31.17
2023-02-02T22:08:48.591Z,25.75
2023-02-02T22:11:25.260Z,31.33
2023-02-02T22:13:55.644Z,34.33
2023-02-02T22:16:23.876Z,29.65
2023-02-02T22:18:52.007Z,30.27
2023-02-02T22:21:21.172Z,25.05
2023-02-02T22:23:49.380Z,30.02
2023-02-02T22:26:30.205Z,27.75
2023-02-02T22:28:58.353Z,26.40
2023-02-02T22:31:26.641Z,26.13
2023-02-02T22:33:54.703Z,27.67
2023-02-02T22:36:22.752Z,21.65
2023-02-02T22:38:50.964Z,23.52
2023-02-02T22:41:19.235Z,27.55
2023-02-02T22:43:49.095Z,26.38
2023-02-02T22:46:17.120Z,22.48
2023-02-02T22:48:45.248Z,23.77
2023-02-02T22:51:13.324Z,24.55
2023-02-02T22:53:41.444Z,20.30
2023-02-02T22:56:09.644Z,23.15
2023-02-02T22:58:37.657Z,23.70
2023-02-02T23:01:07.211Z,20.55
2023-02-02T23:03:35.352Z,18.63
2023-02-02T23:06:03.353Z,19.23
2023-02-02T23:08:31.387Z,23.15
2023-02-02T23:10:59.587Z,20.08
2023-02-02T23:13:27.718Z,20.58
2023-02-02T23:15:56.737Z,19.80
2023-02-02T23:18:26.210Z,23.35
2023-02-02T23:20:54.220Z,20.33
2023-02-02T23:23:23.073Z,18.20
2023-02-02T23:25:51.165Z,18.73
2023-02-02T23:28:19.379Z,17.67
2023-02-02T23:30:47.529Z,17.73
2023-02-02T23:33:15.685Z,19.02
2023-02-02T23:35:45.125Z,20.67
2023-02-02T23:38:13.491Z,21.73
2023-02-02T23:40:41.562Z,15.93
2023-02-02T23:43:09.600Z,15.48
2023-02-02T23:45:38.882Z,22.63
2023-02-02T23:48:07.685Z,17.80
2023-02-02T23:50:38.480Z,22.83
2023-02-02T23:53:08.735Z,22.10
2023-02-02T23:55:37.127Z,16.55
2023-02-02T23:58:05.992Z,20.73
